Triplett, Missouri
Current Conditions -  °F | °C
As of 10:55 PM on Monday 22 Dec 2014 (Local Time) from KVER Reporting Station
Broken Clouds Broken Clouds  
Wind Chill: 41°   Ceiling: 6500
Heat Index: 44°   Visibility: 10mi
Dew Point: 43°   Wind: 6mph
Humidity: 95%   Direction: 230°SW
Pressure: 29.53"   Gusts: NA
Location:  39.5°N, 93.19°W
Report Text: KVER 230455Z AUTO 23005KT 10SM SCT023 BKN065 07/06 A2953 RMK AO2 T00660059
Loading
Personal Weather Stations






























Interactive Weather Map New forecast layout! Learn more

10-Day Weather Forecast

Advertisements
Track Severe Weather on mobile